Terminal Aerodrome Forecast
Issued by NWS

Home | Current Version | Previous Version | Text Only | Print | Product List | Glossary On
Versions: 1 2 3 4 5 6 7 8 9 10 11 12 13 14 15
688
FTUS43 KMPX 131739
TAFRWF
TAF
KRWF 131739Z 1318/1418 14007KT P6SM SCT120 BKN200
     FM132000 15012KT P6SM BKN050 OVC090
     FM140400 14014G23KT 1 1/2SM -SN BLSN BKN025 OVC040
      TEMPO 1406/1410 3/4SM -SN OVC015
     FM141000 14014G20KT 3SM -SN OVC015=

USA.gov is the U.S. government's official web portal to all federal, state and local government web resources and services.